Airfield :
LOGIN :

Register | Disclaimer

   EN    FR    IT 

 










Legend :    VFR   Marginal VFR   IFR   Intensive IFR   Very Intensive IFR
Visi :
Ceiling :
>= 8 km
>= 3000ft
5 to 8 km
1000 to 3000 ft
1500m to 5 km
500 to 1000 ft
800 to 1500m
200 to 500 ft
< 800m
< 200 ft
Symbols :   Thunderstorms  Fog  Heavy snow  Heavy precipitations  Wind > 20 kt
SIGMETs :     Misc.  Thunderstorms  Icing  Turbulence  Mountain Waves  Volcanic Ashes






- Airport Elevation : 290 ft
- IATA code : OSI


LDOS - Osijek

CURRENT METAR :
  • 260500Z 11001KT CAVOK 01/00 Q1023

EXPIRED METARs :
  • 260430Z 08004KT CAVOK 01/00 Q1023
  • 260400Z 06005KT CAVOK 00/M00 Q1023
  • 260330Z 34003KT CAVOK 00/M00 Q1023
  • 260300Z 01003KT CAVOK 01/00 Q1023
  • 260230Z 02002KT CAVOK 01/00 Q1023

TAF TAF LDOS
Valid from the 26 at 00:00 until the 27 at 00:00 UTC


252325Z 2600/2700 10009KT CAVOK TX13/2613Z TN00/2604Z
BECMG 2606/2608 VRB02KT
BECMG 2616/2618 30009KT



MET'MAP, your aeronautical weather chart ! - Copyright ORBIFLY December 2007 - Disclaimer

ORBIFLY MET'MAP TEAM :

Programming & Development : Alexandra Zaïnal
Concept & original design : Baudouin d'Aumeries
Assistance for programming : Marc-Olivier Méhu
Technical & hardware support : Manuel Goepfert

Contact : metmap@orbifly.com




SOURCES & CREDITS :

   NOAA